sensor_id;sensor_type;location;lat;lon;timestamp;P1;durP1;ratioP1;P2;durP2;ratioP2
19664;SDS011;9980;51.020;7.772;2023-04-03T00:00:55;4.90;;;4.50;;
19664;SDS011;9980;51.020;7.772;2023-04-03T00:03:23;4.57;;;4.27;;
19664;SDS011;9980;51.020;7.772;2023-04-03T00:05:50;4.47;;;4.17;;
19664;SDS011;9980;51.020;7.772;2023-04-03T00:08:17;5.83;;;4.63;;
19664;SDS011;9980;51.020;7.772;2023-04-03T00:10:45;5.30;;;4.80;;
19664;SDS011;9980;51.020;7.772;2023-04-03T00:13:12;5.37;;;4.90;;
19664;SDS011;9980;51.020;7.772;2023-04-03T00:15:40;4.53;;;4.33;;
19664;SDS011;9980;51.020;7.772;2023-04-03T00:18:08;4.60;;;4.27;;
19664;SDS011;9980;51.020;7.772;2023-04-03T00:20:35;5.23;;;4.87;;
19664;SDS011;9980;51.020;7.772;2023-04-03T00:23:03;3.80;;;3.60;;
19664;SDS011;9980;51.020;7.772;2023-04-03T00:25:30;4.57;;;4.20;;
19664;SDS011;9980;51.020;7.772;2023-04-03T00:27:57;5.37;;;4.97;;
19664;SDS011;9980;51.020;7.772;2023-04-03T00:30:24;4.03;;;3.73;;
19664;SDS011;9980;51.020;7.772;2023-04-03T00:32:52;4.47;;;4.17;;
19664;SDS011;9980;51.020;7.772;2023-04-03T00:35:20;4.03;;;3.83;;
19664;SDS011;9980;51.020;7.772;2023-04-03T00:37:50;4.97;;;4.67;;
19664;SDS011;9980;51.020;7.772;2023-04-03T00:40:18;4.70;;;4.40;;
19664;SDS011;9980;51.020;7.772;2023-04-03T00:42:48;4.73;;;4.43;;
19664;SDS011;9980;51.020;7.772;2023-04-03T00:45:27;4.40;;;4.10;;
19664;SDS011;9980;51.020;7.772;2023-04-03T00:48:02;4.33;;;4.13;;
19664;SDS011;9980;51.020;7.772;2023-04-03T00:50:33;5.03;;;4.53;;
19664;SDS011;9980;51.020;7.772;2023-04-03T00:53:05;4.77;;;4.47;;
19664;SDS011;9980;51.020;7.772;2023-04-03T00:55:36;5.23;;;4.70;;
19664;SDS011;9980;51.020;7.772;2023-04-03T00:58:05;4.60;;;4.30;;
19664;SDS011;9980;51.020;7.772;2023-04-03T01:00:35;4.77;;;4.47;;
19664;SDS011;9980;51.020;7.772;2023-04-03T01:03:08;5.53;;;5.03;;
19664;SDS011;9980;51.020;7.772;2023-04-03T01:05:38;5.20;;;4.90;;
19664;SDS011;9980;51.020;7.772;2023-04-03T01:08:06;6.03;;;5.30;;
19664;SDS011;9980;51.020;7.772;2023-04-03T01:10:33;5.37;;;4.97;;
19664;SDS011;9980;51.020;7.772;2023-04-03T01:13:00;5.27;;;4.87;;
19664;SDS011;9980;51.020;7.772;2023-04-03T01:15:28;5.53;;;5.23;;
19664;SDS011;9980;51.020;7.772;2023-04-03T01:18:01;5.93;;;5.40;;
19664;SDS011;9980;51.020;7.772;2023-04-03T01:23:17;5.20;;;4.90;;
19664;SDS011;9980;51.020;7.772;2023-04-03T01:26:32;5.00;;;4.70;;
19664;SDS011;9980;51.020;7.772;2023-04-03T01:29:00;5.20;;;4.80;;
19664;SDS011;9980;51.020;7.772;2023-04-03T01:31:47;4.70;;;4.40;;
19664;SDS011;9980;51.020;7.772;2023-04-03T01:34:20;4.83;;;4.53;;
19664;SDS011;9980;51.020;7.772;2023-04-03T01:36:49;5.17;;;4.87;;
19664;SDS011;9980;51.020;7.772;2023-04-03T01:39:17;5.57;;;5.10;;
19664;SDS011;9980;51.020;7.772;2023-04-03T01:41:44;5.10;;;4.70;;
19664;SDS011;9980;51.020;7.772;2023-04-03T01:44:20;4.40;;;4.10;;
19664;SDS011;9980;51.020;7.772;2023-04-03T01:46:47;5.47;;;5.07;;
19664;SDS011;9980;51.020;7.772;2023-04-03T01:49:14;4.73;;;4.43;;
19664;SDS011;9980;51.020;7.772;2023-04-03T01:51:41;5.17;;;4.87;;
19664;SDS011;9980;51.020;7.772;2023-04-03T01:54:08;5.13;;;4.63;;
19664;SDS011;9980;51.020;7.772;2023-04-03T01:56:34;6.10;;;5.70;;
19664;SDS011;9980;51.020;7.772;2023-04-03T01:59:02;5.73;;;5.40;;
19664;SDS011;9980;51.020;7.772;2023-04-03T02:01:29;4.90;;;4.50;;
19664;SDS011;9980;51.020;7.772;2023-04-03T02:03:56;4.97;;;4.67;;
19664;SDS011;9980;51.020;7.772;2023-04-03T02:11:06;4.77;;;4.53;;
19664;SDS011;9980;51.020;7.772;2023-04-03T02:13:33;5.67;;;5.37;;
19664;SDS011;9980;51.020;7.772;2023-04-03T02:16:05;6.47;;;5.97;;
19664;SDS011;9980;51.020;7.772;2023-04-03T02:18:34;5.77;;;5.37;;
19664;SDS011;9980;51.020;7.772;2023-04-03T02:21:01;4.53;;;4.33;;
19664;SDS011;9980;51.020;7.772;2023-04-03T02:23:27;5.57;;;5.20;;
19664;SDS011;9980;51.020;7.772;2023-04-03T02:26:02;5.60;;;5.10;;
19664;SDS011;9980;51.020;7.772;2023-04-03T02:28:37;5.13;;;4.83;;
19664;SDS011;9980;51.020;7.772;2023-04-03T02:31:05;6.70;;;6.10;;
19664;SDS011;9980;51.020;7.772;2023-04-03T02:33:35;5.50;;;5.00;;
19664;SDS011;9980;51.020;7.772;2023-04-03T02:36:06;6.47;;;5.87;;
19664;SDS011;9980;51.020;7.772;2023-04-03T02:38:36;6.03;;;5.50;;
19664;SDS011;9980;51.020;7.772;2023-04-03T02:41:04;6.23;;;5.73;;
19664;SDS011;9980;51.020;7.772;2023-04-03T02:43:34;6.67;;;6.20;;
19664;SDS011;9980;51.020;7.772;2023-04-03T02:46:03;6.47;;;6.07;;
19664;SDS011;9980;51.020;7.772;2023-04-03T02:48:31;6.30;;;5.80;;
19664;SDS011;9980;51.020;7.772;2023-04-03T02:50:58;6.00;;;5.50;;
19664;SDS011;9980;51.020;7.772;2023-04-03T02:53:25;5.63;;;5.23;;
19664;SDS011;9980;51.020;7.772;2023-04-03T02:55:53;5.63;;;5.30;;
19664;SDS011;9980;51.020;7.772;2023-04-03T02:58:19;5.80;;;5.40;;
19664;SDS011;9980;51.020;7.772;2023-04-03T03:00:47;5.50;;;5.17;;
19664;SDS011;9980;51.020;7.772;2023-04-03T03:03:14;5.67;;;5.33;;
19664;SDS011;9980;51.020;7.772;2023-04-03T03:05:41;5.87;;;5.37;;
19664;SDS011;9980;51.020;7.772;2023-04-03T03:08:08;6.07;;;5.67;;
19664;SDS011;9980;51.020;7.772;2023-04-03T03:10:35;6.20;;;5.80;;
19664;SDS011;9980;51.020;7.772;2023-04-03T03:13:03;6.03;;;5.53;;
19664;SDS011;9980;51.020;7.772;2023-04-03T03:15:30;6.67;;;6.03;;
19664;SDS011;9980;51.020;7.772;2023-04-03T03:17:57;6.47;;;6.00;;
19664;SDS011;9980;51.020;7.772;2023-04-03T03:20:24;6.70;;;6.17;;
19664;SDS011;9980;51.020;7.772;2023-04-03T03:22:51;6.53;;;6.03;;
19664;SDS011;9980;51.020;7.772;2023-04-03T03:25:18;6.90;;;5.70;;
19664;SDS011;9980;51.020;7.772;2023-04-03T03:27:45;5.80;;;5.40;;
19664;SDS011;9980;51.020;7.772;2023-04-03T03:30:12;5.67;;;5.27;;
19664;SDS011;9980;51.020;7.772;2023-04-03T03:32:39;6.17;;;5.67;;
19664;SDS011;9980;51.020;7.772;2023-04-03T03:35:06;6.47;;;6.07;;
19664;SDS011;9980;51.020;7.772;2023-04-03T03:37:33;6.30;;;5.80;;
19664;SDS011;9980;51.020;7.772;2023-04-03T03:40:00;5.47;;;5.17;;
19664;SDS011;9980;51.020;7.772;2023-04-03T03:42:28;5.67;;;5.27;;
19664;SDS011;9980;51.020;7.772;2023-04-03T03:44:55;6.87;;;6.27;;
19664;SDS011;9980;51.020;7.772;2023-04-03T03:47:22;6.00;;;5.60;;
19664;SDS011;9980;51.020;7.772;2023-04-03T03:49:50;6.57;;;6.10;;
19664;SDS011;9980;51.020;7.772;2023-04-03T03:52:17;6.50;;;5.77;;
19664;SDS011;9980;51.020;7.772;2023-04-03T03:54:44;6.17;;;5.80;;
19664;SDS011;9980;51.020;7.772;2023-04-03T03:57:11;6.97;;;6.10;;
19664;SDS011;9980;51.020;7.772;2023-04-03T03:59:39;6.00;;;5.60;;
19664;SDS011;9980;51.020;7.772;2023-04-03T04:02:07;6.40;;;5.80;;
19664;SDS011;9980;51.020;7.772;2023-04-03T04:04:35;5.20;;;4.77;;
19664;SDS011;9980;51.020;7.772;2023-04-03T04:07:03;6.10;;;5.70;;
19664;SDS011;9980;51.020;7.772;2023-04-03T04:09:32;6.07;;;5.53;;
19664;SDS011;9980;51.020;7.772;2023-04-03T04:11:59;6.80;;;6.30;;
19664;SDS011;9980;51.020;7.772;2023-04-03T04:14:28;6.57;;;6.07;;
19664;SDS011;9980;51.020;7.772;2023-04-03T04:16:55;7.87;;;6.07;;
19664;SDS011;9980;51.020;7.772;2023-04-03T04:19:25;6.00;;;5.60;;
19664;SDS011;9980;51.020;7.772;2023-04-03T04:21:53;5.80;;;5.30;;
19664;SDS011;9980;51.020;7.772;2023-04-03T04:24:20;5.37;;;4.97;;
19664;SDS011;9980;51.020;7.772;2023-04-03T04:26:50;5.90;;;5.40;;
19664;SDS011;9980;51.020;7.772;2023-04-03T04:29:19;5.40;;;5.07;;
19664;SDS011;9980;51.020;7.772;2023-04-03T04:31:48;6.13;;;5.73;;
19664;SDS011;9980;51.020;7.772;2023-04-03T04:34:16;6.07;;;5.27;;
19664;SDS011;9980;51.020;7.772;2023-04-03T04:36:43;5.33;;;4.93;;
19664;SDS011;9980;51.020;7.772;2023-04-03T04:39:10;6.20;;;5.70;;
19664;SDS011;9980;51.020;7.772;2023-04-03T04:41:38;5.77;;;5.40;;
19664;SDS011;9980;51.020;7.772;2023-04-03T04:44:06;5.50;;;5.07;;
19664;SDS011;9980;51.020;7.772;2023-04-03T04:46:33;6.17;;;5.13;;
19664;SDS011;9980;51.020;7.772;2023-04-03T04:49:00;5.90;;;5.50;;
19664;SDS011;9980;51.020;7.772;2023-04-03T04:51:29;5.07;;;4.77;;
19664;SDS011;9980;51.020;7.772;2023-04-03T04:54:15;6.67;;;5.70;;
19664;SDS011;9980;51.020;7.772;2023-04-03T04:56:42;6.20;;;5.70;;
19664;SDS011;9980;51.020;7.772;2023-04-03T04:59:09;5.83;;;5.33;;
19664;SDS011;9980;51.020;7.772;2023-04-03T05:01:36;5.70;;;5.40;;
19664;SDS011;9980;51.020;7.772;2023-04-03T05:04:08;6.23;;;5.63;;
19664;SDS011;9980;51.020;7.772;2023-04-03T05:06:36;5.40;;;5.10;;
19664;SDS011;9980;51.020;7.772;2023-04-03T05:09:07;6.00;;;5.53;;
19664;SDS011;9980;51.020;7.772;2023-04-03T05:11:36;5.67;;;5.33;;
19664;SDS011;9980;51.020;7.772;2023-04-03T05:14:05;5.00;;;4.70;;
19664;SDS011;9980;51.020;7.772;2023-04-03T05:16:34;6.07;;;5.67;;
19664;SDS011;9980;51.020;7.772;2023-04-03T05:19:01;6.77;;;5.23;;
19664;SDS011;9980;51.020;7.772;2023-04-03T05:21:29;5.73;;;5.33;;
19664;SDS011;9980;51.020;7.772;2023-04-03T05:24:03;5.97;;;5.53;;
19664;SDS011;9980;51.020;7.772;2023-04-03T05:26:33;5.23;;;4.73;;
19664;SDS011;9980;51.020;7.772;2023-04-03T05:29:00;5.30;;;5.00;;
19664;SDS011;9980;51.020;7.772;2023-04-03T05:31:29;5.83;;;5.33;;
19664;SDS011;9980;51.020;7.772;2023-04-03T05:33:56;5.50;;;5.10;;
19664;SDS011;9980;51.020;7.772;2023-04-03T05:36:26;6.33;;;5.80;;
19664;SDS011;9980;51.020;7.772;2023-04-03T05:38:58;5.47;;;5.10;;
19664;SDS011;9980;51.020;7.772;2023-04-03T05:41:25;5.60;;;5.30;;
19664;SDS011;9980;51.020;7.772;2023-04-03T05:43:52;5.27;;;4.97;;
19664;SDS011;9980;51.020;7.772;2023-04-03T05:46:20;5.47;;;5.17;;
19664;SDS011;9980;51.020;7.772;2023-04-03T05:48:52;5.20;;;4.90;;
19664;SDS011;9980;51.020;7.772;2023-04-03T05:51:23;5.70;;;5.20;;
19664;SDS011;9980;51.020;7.772;2023-04-03T05:54:12;5.03;;;4.70;;
19664;SDS011;9980;51.020;7.772;2023-04-03T05:57:10;4.87;;;4.57;;
19664;SDS011;9980;51.020;7.772;2023-04-03T05:59:40;5.90;;;5.17;;
19664;SDS011;9980;51.020;7.772;2023-04-03T06:02:07;5.73;;;5.33;;
19664;SDS011;9980;51.020;7.772;2023-04-03T06:04:38;5.47;;;5.17;;
19664;SDS011;9980;51.020;7.772;2023-04-03T06:07:05;5.77;;;5.37;;
19664;SDS011;9980;51.020;7.772;2023-04-03T06:09:33;9.23;;;7.30;;
19664;SDS011;9980;51.020;7.772;2023-04-03T06:12:00;7.67;;;6.87;;
19664;SDS011;9980;51.020;7.772;2023-04-03T06:14:28;6.27;;;5.67;;
19664;SDS011;9980;51.020;7.772;2023-04-03T06:16:55;5.90;;;5.47;;
19664;SDS011;9980;51.020;7.772;2023-04-03T06:19:23;8.77;;;5.70;;
19664;SDS011;9980;51.020;7.772;2023-04-03T06:21:54;6.63;;;6.00;;
19664;SDS011;9980;51.020;7.772;2023-04-03T06:24:22;5.93;;;5.43;;
19664;SDS011;9980;51.020;7.772;2023-04-03T06:26:51;6.40;;;5.80;;
19664;SDS011;9980;51.020;7.772;2023-04-03T06:29:19;5.90;;;5.40;;
19664;SDS011;9980;51.020;7.772;2023-04-03T06:31:46;6.67;;;5.07;;
19664;SDS011;9980;51.020;7.772;2023-04-03T06:34:14;5.07;;;4.77;;
19664;SDS011;9980;51.020;7.772;2023-04-03T06:36:44;5.80;;;5.30;;
19664;SDS011;9980;51.020;7.772;2023-04-03T06:39:15;5.30;;;5.00;;
19664;SDS011;9980;51.020;7.772;2023-04-03T06:41:46;5.07;;;4.73;;
19664;SDS011;9980;51.020;7.772;2023-04-03T06:44:14;5.30;;;4.80;;
19664;SDS011;9980;51.020;7.772;2023-04-03T06:46:42;5.10;;;4.60;;
19664;SDS011;9980;51.020;7.772;2023-04-03T06:49:11;7.07;;;5.10;;
19664;SDS011;9980;51.020;7.772;2023-04-03T06:51:39;5.20;;;4.87;;
19664;SDS011;9980;51.020;7.772;2023-04-03T06:54:06;4.60;;;4.30;;
19664;SDS011;9980;51.020;7.772;2023-04-03T06:56:34;5.23;;;4.73;;
19664;SDS011;9980;51.020;7.772;2023-04-03T06:59:02;5.10;;;4.70;;
19664;SDS011;9980;51.020;7.772;2023-04-03T07:01:29;4.80;;;4.33;;
19664;SDS011;9980;51.020;7.772;2023-04-03T07:03:57;5.27;;;4.33;;
19664;SDS011;9980;51.020;7.772;2023-04-03T07:06:24;5.23;;;4.47;;
19664;SDS011;9980;51.020;7.772;2023-04-03T07:08:53;4.80;;;4.30;;
19664;SDS011;9980;51.020;7.772;2023-04-03T07:11:21;4.50;;;4.20;;
19664;SDS011;9980;51.020;7.772;2023-04-03T07:13:49;5.17;;;4.53;;
19664;SDS011;9980;51.020;7.772;2023-04-03T07:16:17;4.70;;;4.30;;
19664;SDS011;9980;51.020;7.772;2023-04-03T07:18:44;4.50;;;4.10;;
19664;SDS011;9980;51.020;7.772;2023-04-03T07:21:12;6.80;;;4.43;;
19664;SDS011;9980;51.020;7.772;2023-04-03T07:23:39;6.57;;;4.40;;
19664;SDS011;9980;51.020;7.772;2023-04-03T07:26:06;4.67;;;4.03;;
19664;SDS011;9980;51.020;7.772;2023-04-03T07:28:34;6.00;;;4.17;;
19664;SDS011;9980;51.020;7.772;2023-04-03T07:31:04;4.57;;;4.20;;
19664;SDS011;9980;51.020;7.772;2023-04-03T07:33:34;5.20;;;4.27;;
19664;SDS011;9980;51.020;7.772;2023-04-03T07:36:02;4.13;;;3.73;;
19664;SDS011;9980;51.020;7.772;2023-04-03T07:38:30;4.70;;;4.23;;
19664;SDS011;9980;51.020;7.772;2023-04-03T07:40:57;5.80;;;4.10;;
19664;SDS011;9980;51.020;7.772;2023-04-03T07:43:24;4.23;;;3.90;;
19664;SDS011;9980;51.020;7.772;2023-04-03T07:45:52;8.23;;;3.93;;
19664;SDS011;9980;51.020;7.772;2023-04-03T07:48:23;4.23;;;3.90;;
19664;SDS011;9980;51.020;7.772;2023-04-03T07:50:51;3.80;;;3.50;;
19664;SDS011;9980;51.020;7.772;2023-04-03T07:53:18;5.30;;;3.60;;
19664;SDS011;9980;51.020;7.772;2023-04-03T07:55:46;5.40;;;4.03;;
19664;SDS011;9980;51.020;7.772;2023-04-03T07:58:17;4.20;;;3.77;;
19664;SDS011;9980;51.020;7.772;2023-04-03T08:00:45;5.17;;;3.70;;
19664;SDS011;9980;51.020;7.772;2023-04-03T08:03:13;7.70;;;3.93;;
19664;SDS011;9980;51.020;7.772;2023-04-03T08:05:43;3.77;;;3.47;;
19664;SDS011;9980;51.020;7.772;2023-04-03T08:08:15;3.70;;;3.40;;
19664;SDS011;9980;51.020;7.772;2023-04-03T08:10:50;3.30;;;2.90;;
19664;SDS011;9980;51.020;7.772;2023-04-03T08:13:19;4.33;;;3.40;;
19664;SDS011;9980;51.020;7.772;2023-04-03T08:15:47;4.70;;;3.80;;
19664;SDS011;9980;51.020;7.772;2023-04-03T08:18:14;4.70;;;3.00;;
19664;SDS011;9980;51.020;7.772;2023-04-03T08:20:42;5.80;;;3.20;;
19664;SDS011;9980;51.020;7.772;2023-04-03T08:23:11;3.40;;;3.10;;
19664;SDS011;9980;51.020;7.772;2023-04-03T08:25:38;4.07;;;3.03;;
19664;SDS011;9980;51.020;7.772;2023-04-03T08:28:07;2.83;;;2.60;;
19664;SDS011;9980;51.020;7.772;2023-04-03T08:30:41;5.23;;;3.10;;
19664;SDS011;9980;51.020;7.772;2023-04-03T08:33:09;3.67;;;3.30;;
19664;SDS011;9980;51.020;7.772;2023-04-03T08:35:40;3.20;;;2.90;;
19664;SDS011;9980;51.020;7.772;2023-04-03T08:38:09;3.10;;;2.90;;
19664;SDS011;9980;51.020;7.772;2023-04-03T08:40:36;2.80;;;2.60;;
19664;SDS011;9980;51.020;7.772;2023-04-03T08:45:50;3.30;;;2.90;;
19664;SDS011;9980;51.020;7.772;2023-04-03T08:48:23;2.87;;;2.50;;
19664;SDS011;9980;51.020;7.772;2023-04-03T08:50:58;2.80;;;2.60;;
19664;SDS011;9980;51.020;7.772;2023-04-03T08:53:37;6.33;;;2.47;;
19664;SDS011;9980;51.020;7.772;2023-04-03T08:56:12;3.47;;;2.87;;
19664;SDS011;9980;51.020;7.772;2023-04-03T08:58:50;3.00;;;2.70;;
19664;SDS011;9980;51.020;7.772;2023-04-03T09:01:26;2.90;;;2.60;;
19664;SDS011;9980;51.020;7.772;2023-04-03T09:04:03;3.23;;;2.43;;
19664;SDS011;9980;51.020;7.772;2023-04-03T09:06:39;3.10;;;2.40;;
19664;SDS011;9980;51.020;7.772;2023-04-03T09:11:57;3.67;;;2.47;;
19664;SDS011;9980;51.020;7.772;2023-04-03T09:15:02;2.63;;;2.40;;
19664;SDS011;9980;51.020;7.772;2023-04-03T09:18:17;2.30;;;2.20;;
19664;SDS011;9980;51.020;7.772;2023-04-03T09:20:54;2.93;;;2.70;;
19664;SDS011;9980;51.020;7.772;2023-04-03T09:24:12;2.40;;;2.30;;
19664;SDS011;9980;51.020;7.772;2023-04-03T09:26:44;2.60;;;2.40;;
19664;SDS011;9980;51.020;7.772;2023-04-03T09:29:22;2.70;;;2.50;;
19664;SDS011;9980;51.020;7.772;2023-04-03T09:32:00;3.13;;;2.83;;
19664;SDS011;9980;51.020;7.772;2023-04-03T09:34:36;2.30;;;2.20;;
19664;SDS011;9980;51.020;7.772;2023-04-03T09:37:04;3.57;;;3.27;;
19664;SDS011;9980;51.020;7.772;2023-04-03T09:39:50;2.83;;;2.63;;
19664;SDS011;9980;51.020;7.772;2023-04-03T09:42:21;3.00;;;2.40;;
19664;SDS011;9980;51.020;7.772;2023-04-03T09:44:55;2.10;;;2.00;;
19664;SDS011;9980;51.020;7.772;2023-04-03T09:47:26;2.60;;;2.40;;
19664;SDS011;9980;51.020;7.772;2023-04-03T09:50:19;2.23;;;2.03;;
19664;SDS011;9980;51.020;7.772;2023-04-03T09:52:49;2.50;;;2.30;;
19664;SDS011;9980;51.020;7.772;2023-04-03T09:55:21;2.80;;;2.47;;
19664;SDS011;9980;51.020;7.772;2023-04-03T09:57:57;2.20;;;2.10;;
19664;SDS011;9980;51.020;7.772;2023-04-03T10:00:31;2.67;;;2.47;;
19664;SDS011;9980;51.020;7.772;2023-04-03T10:03:03;4.53;;;2.40;;
19664;SDS011;9980;51.020;7.772;2023-04-03T10:05:35;2.10;;;2.00;;
19664;SDS011;9980;51.020;7.772;2023-04-03T10:10:41;2.20;;;2.00;;
19664;SDS011;9980;51.020;7.772;2023-04-03T10:13:15;2.10;;;2.00;;
19664;SDS011;9980;51.020;7.772;2023-04-03T10:16:03;2.13;;;2.03;;
19664;SDS011;9980;51.020;7.772;2023-04-03T10:24:35;2.40;;;2.20;;
19664;SDS011;9980;51.020;7.772;2023-04-03T10:30:28;2.07;;;1.97;;
19664;SDS011;9980;51.020;7.772;2023-04-03T10:39:34;2.13;;;2.00;;
19664;SDS011;9980;51.020;7.772;2023-04-03T10:42:35;1.93;;;1.83;;
19664;SDS011;9980;51.020;7.772;2023-04-03T10:51:12;1.97;;;1.87;;
19664;SDS011;9980;51.020;7.772;2023-04-03T10:53:57;2.00;;;1.90;;
19664;SDS011;9980;51.020;7.772;2023-04-03T10:59:29;1.90;;;1.80;;
19664;SDS011;9980;51.020;7.772;2023-04-03T11:02:17;2.00;;;1.90;;
19664;SDS011;9980;51.020;7.772;2023-04-03T11:05:04;2.27;;;2.00;;
19664;SDS011;9980;51.020;7.772;2023-04-03T11:07:43;2.00;;;1.80;;
19664;SDS011;9980;51.020;7.772;2023-04-03T11:10:28;2.67;;;2.00;;
19664;SDS011;9980;51.020;7.772;2023-04-03T11:13:12;2.27;;;2.00;;
19664;SDS011;9980;51.020;7.772;2023-04-03T11:16:00;2.10;;;1.90;;
19664;SDS011;9980;51.020;7.772;2023-04-03T11:18:42;2.50;;;1.90;;
19664;SDS011;9980;51.020;7.772;2023-04-03T11:21:34;2.10;;;2.00;;
19664;SDS011;9980;51.020;7.772;2023-04-03T11:24:14;1.83;;;1.73;;
19664;SDS011;9980;51.020;7.772;2023-04-03T11:26:50;2.00;;;1.90;;
19664;SDS011;9980;51.020;7.772;2023-04-03T11:29:20;2.17;;;1.77;;
19664;SDS011;9980;51.020;7.772;2023-04-03T11:32:02;1.93;;;1.80;;
19664;SDS011;9980;51.020;7.772;2023-04-03T11:34:57;2.23;;;2.03;;
19664;SDS011;9980;51.020;7.772;2023-04-03T11:37:35;7.00;;;5.33;;
19664;SDS011;9980;51.020;7.772;2023-04-03T11:50:55;3.33;;;2.10;;
19664;SDS011;9980;51.020;7.772;2023-04-03T11:53:31;2.10;;;1.90;;
19664;SDS011;9980;51.020;7.772;2023-04-03T11:56:04;2.23;;;1.97;;
19664;SDS011;9980;51.020;7.772;2023-04-03T11:59:15;2.30;;;2.10;;
19664;SDS011;9980;51.020;7.772;2023-04-03T12:04:25;2.47;;;2.13;;
19664;SDS011;9980;51.020;7.772;2023-04-03T12:06:59;3.20;;;1.90;;
19664;SDS011;9980;51.020;7.772;2023-04-03T12:12:24;2.30;;;2.10;;
19664;SDS011;9980;51.020;7.772;2023-04-03T12:17:50;2.37;;;2.10;;
19664;SDS011;9980;51.020;7.772;2023-04-03T12:23:29;2.00;;;1.90;;
19664;SDS011;9980;51.020;7.772;2023-04-03T12:27:04;2.47;;;2.07;;
19664;SDS011;9980;51.020;7.772;2023-04-03T12:34:51;2.03;;;1.83;;
19664;SDS011;9980;51.020;7.772;2023-04-03T12:37:37;2.00;;;1.90;;
19664;SDS011;9980;51.020;7.772;2023-04-03T12:43:23;2.77;;;2.57;;
19664;SDS011;9980;51.020;7.772;2023-04-03T12:51:18;3.67;;;2.80;;
19664;SDS011;9980;51.020;7.772;2023-04-03T12:54:15;14.37;;;6.60;;
19664;SDS011;9980;51.020;7.772;2023-04-03T12:56:48;4.10;;;3.13;;
19664;SDS011;9980;51.020;7.772;2023-04-03T12:59:16;2.10;;;1.90;;
19664;SDS011;9980;51.020;7.772;2023-04-03T13:01:53;2.30;;;2.10;;
19664;SDS011;9980;51.020;7.772;2023-04-03T13:04:27;2.40;;;2.20;;
19664;SDS011;9980;51.020;7.772;2023-04-03T13:06:56;3.77;;;3.47;;
19664;SDS011;9980;51.020;7.772;2023-04-03T13:12:00;1.90;;;1.80;;
19664;SDS011;9980;51.020;7.772;2023-04-03T13:14:39;2.20;;;2.00;;
19664;SDS011;9980;51.020;7.772;2023-04-03T13:17:11;3.00;;;2.40;;
19664;SDS011;9980;51.020;7.772;2023-04-03T13:19:42;3.27;;;2.40;;
19664;SDS011;9980;51.020;7.772;2023-04-03T13:25:10;2.47;;;2.27;;
19664;SDS011;9980;51.020;7.772;2023-04-03T13:27:42;2.60;;;2.40;;
19664;SDS011;9980;51.020;7.772;2023-04-03T13:30:54;2.30;;;2.10;;
19664;SDS011;9980;51.020;7.772;2023-04-03T13:33:17;2.00;;;1.90;;
19664;SDS011;9980;51.020;7.772;2023-04-03T13:35:54;2.73;;;1.73;;
19664;SDS011;9980;51.020;7.772;2023-04-03T13:38:46;2.03;;;1.90;;
19664;SDS011;9980;51.020;7.772;2023-04-03T13:41:31;2.33;;;1.83;;
19664;SDS011;9980;51.020;7.772;2023-04-03T13:44:15;4.10;;;2.00;;
19664;SDS011;9980;51.020;7.772;2023-04-03T13:52:17;2.93;;;2.00;;
19664;SDS011;9980;51.020;7.772;2023-04-03T13:54:59;1.87;;;1.77;;
19664;SDS011;9980;51.020;7.772;2023-04-03T13:57:52;3.30;;;2.03;;
19664;SDS011;9980;51.020;7.772;2023-04-03T14:00:28;2.10;;;2.00;;
19664;SDS011;9980;51.020;7.772;2023-04-03T14:03:01;2.00;;;1.80;;
19664;SDS011;9980;51.020;7.772;2023-04-03T14:05:39;2.47;;;2.00;;
19664;SDS011;9980;51.020;7.772;2023-04-03T14:08:06;2.27;;;2.07;;
19664;SDS011;9980;51.020;7.772;2023-04-03T14:10:33;2.40;;;1.80;;
19664;SDS011;9980;51.020;7.772;2023-04-03T14:13:00;2.33;;;1.80;;
19664;SDS011;9980;51.020;7.772;2023-04-03T14:15:28;2.20;;;2.00;;
19664;SDS011;9980;51.020;7.772;2023-04-03T14:17:59;2.00;;;1.83;;
19664;SDS011;9980;51.020;7.772;2023-04-03T14:20:29;2.43;;;2.23;;
19664;SDS011;9980;51.020;7.772;2023-04-03T14:22:56;2.63;;;2.10;;
19664;SDS011;9980;51.020;7.772;2023-04-03T14:25:23;2.10;;;1.90;;
19664;SDS011;9980;51.020;7.772;2023-04-03T14:27:51;2.40;;;2.00;;
19664;SDS011;9980;51.020;7.772;2023-04-03T14:30:27;2.60;;;1.93;;
19664;SDS011;9980;51.020;7.772;2023-04-03T14:32:58;2.07;;;1.70;;
19664;SDS011;9980;51.020;7.772;2023-04-03T14:35:27;2.73;;;1.87;;
19664;SDS011;9980;51.020;7.772;2023-04-03T14:37:55;2.43;;;2.10;;
19664;SDS011;9980;51.020;7.772;2023-04-03T14:40:24;2.20;;;2.00;;
19664;SDS011;9980;51.020;7.772;2023-04-03T14:42:54;2.90;;;1.73;;
19664;SDS011;9980;51.020;7.772;2023-04-03T14:45:22;7.03;;;6.37;;
19664;SDS011;9980;51.020;7.772;2023-04-03T14:47:54;2.60;;;2.40;;
19664;SDS011;9980;51.020;7.772;2023-04-03T14:50:23;2.03;;;1.90;;
19664;SDS011;9980;51.020;7.772;2023-04-03T14:52:54;2.27;;;2.07;;
19664;SDS011;9980;51.020;7.772;2023-04-03T14:55:25;2.73;;;2.00;;
19664;SDS011;9980;51.020;7.772;2023-04-03T14:57:53;2.10;;;1.87;;
19664;SDS011;9980;51.020;7.772;2023-04-03T15:00:21;3.23;;;2.30;;
19664;SDS011;9980;51.020;7.772;2023-04-03T15:02:49;3.33;;;2.43;;
19664;SDS011;9980;51.020;7.772;2023-04-03T15:05:17;3.17;;;2.10;;
19664;SDS011;9980;51.020;7.772;2023-04-03T15:07:49;2.13;;;1.70;;
19664;SDS011;9980;51.020;7.772;2023-04-03T15:10:21;2.10;;;1.97;;
19664;SDS011;9980;51.020;7.772;2023-04-03T15:12:52;5.23;;;1.93;;
19664;SDS011;9980;51.020;7.772;2023-04-03T15:15:21;2.83;;;2.20;;
19664;SDS011;9980;51.020;7.772;2023-04-03T15:17:53;2.37;;;2.17;;
19664;SDS011;9980;51.020;7.772;2023-04-03T15:20:24;2.07;;;1.73;;
19664;SDS011;9980;51.020;7.772;2023-04-03T15:22:53;4.40;;;2.13;;
19664;SDS011;9980;51.020;7.772;2023-04-03T15:25:22;3.63;;;2.43;;
19664;SDS011;9980;51.020;7.772;2023-04-03T15:27:52;2.60;;;2.40;;
19664;SDS011;9980;51.020;7.772;2023-04-03T15:30:20;2.13;;;1.93;;
19664;SDS011;9980;51.020;7.772;2023-04-03T15:32:48;3.10;;;2.20;;
19664;SDS011;9980;51.020;7.772;2023-04-03T15:35:16;2.67;;;2.33;;
19664;SDS011;9980;51.020;7.772;2023-04-03T15:37:44;4.30;;;2.60;;
19664;SDS011;9980;51.020;7.772;2023-04-03T15:42:53;3.27;;;2.10;;
19664;SDS011;9980;51.020;7.772;2023-04-03T15:45:20;2.63;;;2.00;;
19664;SDS011;9980;51.020;7.772;2023-04-03T15:47:47;2.00;;;1.90;;
19664;SDS011;9980;51.020;7.772;2023-04-03T15:50:15;3.03;;;2.00;;
19664;SDS011;9980;51.020;7.772;2023-04-03T15:52:42;2.90;;;2.43;;
19664;SDS011;9980;51.020;7.772;2023-04-03T15:55:09;5.10;;;2.70;;
19664;SDS011;9980;51.020;7.772;2023-04-03T15:57:36;2.60;;;2.10;;
19664;SDS011;9980;51.020;7.772;2023-04-03T16:00:08;2.77;;;2.00;;
19664;SDS011;9980;51.020;7.772;2023-04-03T16:02:35;2.40;;;2.00;;
19664;SDS011;9980;51.020;7.772;2023-04-03T16:05:03;2.50;;;2.30;;
19664;SDS011;9980;51.020;7.772;2023-04-03T16:07:30;2.47;;;2.27;;
19664;SDS011;9980;51.020;7.772;2023-04-03T16:09:57;2.40;;;1.87;;
19664;SDS011;9980;51.020;7.772;2023-04-03T16:12:24;2.60;;;2.13;;
19664;SDS011;9980;51.020;7.772;2023-04-03T16:14:51;2.20;;;2.10;;
19664;SDS011;9980;51.020;7.772;2023-04-03T16:17:18;3.87;;;2.47;;
19664;SDS011;9980;51.020;7.772;2023-04-03T16:19:45;2.13;;;2.03;;
19664;SDS011;9980;51.020;7.772;2023-04-03T16:22:12;2.57;;;2.37;;
19664;SDS011;9980;51.020;7.772;2023-04-03T16:24:39;4.43;;;2.40;;
19664;SDS011;9980;51.020;7.772;2023-04-03T16:27:06;2.40;;;2.20;;
19664;SDS011;9980;51.020;7.772;2023-04-03T16:29:33;2.30;;;2.10;;
19664;SDS011;9980;51.020;7.772;2023-04-03T16:32:00;3.13;;;2.17;;
19664;SDS011;9980;51.020;7.772;2023-04-03T16:34:28;2.73;;;2.17;;
19664;SDS011;9980;51.020;7.772;2023-04-03T16:36:58;2.33;;;2.13;;
19664;SDS011;9980;51.020;7.772;2023-04-03T16:39:26;2.93;;;2.20;;
19664;SDS011;9980;51.020;7.772;2023-04-03T16:41:53;3.77;;;2.30;;
19664;SDS011;9980;51.020;7.772;2023-04-03T16:44:20;3.73;;;2.73;;
19664;SDS011;9980;51.020;7.772;2023-04-03T16:46:47;2.90;;;2.33;;
19664;SDS011;9980;51.020;7.772;2023-04-03T16:49:14;3.30;;;2.27;;
19664;SDS011;9980;51.020;7.772;2023-04-03T16:51:41;2.83;;;2.57;;
19664;SDS011;9980;51.020;7.772;2023-04-03T16:54:08;3.10;;;2.50;;
19664;SDS011;9980;51.020;7.772;2023-04-03T16:56:37;4.13;;;2.70;;